Time;durP1;ratioP1;P1;durP2;ratioP2;P2;SDS_P1;SDS_P2;PMS_P1;PMS_P2;Temp;Humidity;BMP_temperature;BMP_pressure;BME280_temperature;BME280_humidity;BME280_pressure;Samples;Min_cycle;Max_cycle;Signal;HPM_P1;HPM_P2
2022/05/22 00:01:39;;;;;;;2.50;1.60;;;;;;;14.14;54.94;97951.23;1742846;81;21516;-85
2022/05/22 00:04:04;;;;;;;4.40;1.98;;;;;;;14.12;55.44;97949.38;1740738;82;20986;-81
2022/05/22 00:06:30;;;;;;;3.67;2.00;;;;;;;14.09;55.07;97946.67;1707714;82;20887;-81
2022/05/22 00:08:56;;;;;;;3.47;2.00;;;;;;;14.09;55.61;97952.69;1703427;82;20931;-81
2022/05/22 00:11:22;;;;;;;3.37;1.40;;;;;;;14.04;55.76;97947.36;1723636;80;21625;-85
2022/05/22 00:13:49;;;;;;;5.58;2.22;;;;;;;14.01;55.80;97943.30;1738691;80;21211;-81
2022/05/22 00:19:00;;;;;;;5.33;2.00;;;;;;;13.91;56.19;97943.52;1733326;80;21061;-85
2022/05/22 00:21:26;;;;;;;4.25;1.87;;;;;;;13.86;56.37;97941.47;1743363;81;20957;-86
2022/05/22 00:23:52;;;;;;;3.75;1.70;;;;;;;13.78;56.37;97932.88;1735894;82;21003;-86
2022/05/22 00:26:18;;;;;;;7.22;2.70;;;;;;;13.75;56.43;97938.11;1725237;82;22004;-86
2022/05/22 00:28:44;;;;;;;3.87;2.40;;;;;;;13.73;56.85;97937.05;1713407;80;21032;-82
2022/05/22 00:31:10;;;;;;;2.87;1.92;;;;;;;13.66;56.96;97937.20;1720246;80;21346;-82
2022/05/22 00:33:36;;;;;;;6.28;2.20;;;;;;;13.61;57.17;97935.39;1729752;80;21019;-81
2022/05/22 00:36:03;;;;;;;4.70;2.10;;;;;;;13.54;57.64;97934.98;1742955;82;20989;-81
2022/05/22 00:38:29;;;;;;;5.42;2.60;;;;;;;13.50;57.85;97936.67;1741301;80;21129;-86
2022/05/22 00:40:55;;;;;;;5.50;2.37;;;;;;;13.45;58.01;97936.23;1728519;80;21639;-82
2022/05/22 00:43:30;;;;;;;5.53;2.35;;;;;;;13.44;58.18;97936.53;1728575;80;20871;-81
2022/05/22 00:45:57;;;;;;;5.05;2.80;;;;;;;13.41;58.02;97940.64;1732817;82;21102;-86
2022/05/22 00:48:23;;;;;;;8.28;2.62;;;;;;;13.38;58.02;97937.16;1714496;80;21034;-86
2022/05/22 00:50:49;;;;;;;3.17;2.25;;;;;;;13.39;58.53;97937.41;1743358;82;21070;-82
2022/05/22 00:53:15;;;;;;;4.50;1.92;;;;;;;13.37;58.25;97936.11;1741929;80;21036;-85
2022/05/22 00:55:41;;;;;;;5.65;2.47;;;;;;;13.37;59.31;97938.28;1736327;80;20903;-81
2022/05/22 00:58:16;;;;;;;4.05;2.00;;;;;;;13.37;58.71;97942.36;1713478;83;20942;-81
2022/05/22 01:00:42;;;;;;;6.20;2.20;;;;;;;13.39;58.92;97944.78;1720542;80;21069;-86
2022/05/22 01:03:28;;;;;;;5.15;2.00;;;;;;;13.37;58.90;97942.36;1743193;81;21879;-86
2022/05/22 01:05:57;;;;;;;3.40;2.10;;;;;;;13.39;58.89;97936.61;1714941;82;21429;-85
2022/05/22 01:08:23;;;;;;;10.35;2.33;;;;;;;13.42;58.81;97940.92;1705955;80;21025;-81
2022/05/22 01:11:02;;;;;;;6.37;2.12;;;;;;;13.45;59.42;97937.59;1743294;82;21029;-85
2022/05/22 01:13:35;;;;;;;2.20;1.37;;;;;;;13.43;59.28;97934.37;1721303;80;21028;-85
2022/05/22 01:16:02;;;;;;;4.75;1.98;;;;;;;13.47;59.92;97931.84;1723086;83;21038;-86
2022/05/22 01:18:28;;;;;;;3.92;1.77;;;;;;;13.47;59.30;97931.28;1715450;80;21018;-81
2022/05/22 01:20:54;;;;;;;3.65;2.02;;;;;;;13.50;59.69;97929.86;1743451;82;21495;-85
2022/05/22 01:23:20;;;;;;;4.75;1.60;;;;;;;13.50;59.67;97933.95;1741725;80;20970;-85
2022/05/22 01:25:47;;;;;;;3.83;2.00;;;;;;;13.48;59.97;97932.89;1733813;82;21020;-86
2022/05/22 01:28:16;;;;;;;5.08;1.87;;;;;;;13.49;60.58;97934.50;1713118;82;21139;-82
2022/05/22 01:30:42;;;;;;;5.08;1.92;;;;;;;13.53;60.60;97932.81;1725199;82;21026;-81
2022/05/22 01:33:08;;;;;;;5.35;2.12;;;;;;;13.51;60.41;97928.78;1713602;83;21038;-81
2022/05/22 01:35:35;;;;;;;3.05;1.72;;;;;;;13.51;61.05;97932.31;1719593;80;20885;-82
2022/05/22 01:38:03;;;;;;;9.68;2.10;;;;;;;13.47;61.25;97929.92;1743085;81;21079;-82
2022/05/22 01:40:29;;;;;;;6.25;2.00;;;;;;;13.48;60.93;97933.45;1727400;80;21486;-82
2022/05/22 01:42:54;;;;;;;3.37;2.27;;;;;;;13.43;62.75;97935.73;1713406;83;22493;-82
2022/05/22 01:45:24;;;;;;;4.47;2.40;;;;;;;13.42;61.93;97932.75;1726122;80;20884;-86
2022/05/22 01:47:50;;;;;;;5.28;2.42;;;;;;;13.41;61.86;97933.03;1728378;81;20983;-81
2022/05/22 01:50:16;;;;;;;6.05;2.47;;;;;;;13.38;62.71;97924.92;1735671;80;21251;-82
2022/05/22 01:52:42;;;;;;;5.75;2.25;;;;;;;13.32;63.63;97930.75;1703183;84;21276;-82
2022/05/22 01:55:10;;;;;;;3.58;2.42;;;;;;;13.31;62.78;97926.41;1722634;80;20994;-85
2022/05/22 01:57:36;;;;;;;4.12;2.92;;;;;;;13.25;63.31;97931.16;1728331;81;21086;-85
2022/05/22 02:00:05;;;;;;;5.15;2.83;;;;;;;13.24;62.88;97926.27;1738690;80;21005;-81
2022/05/22 02:02:31;;;;;;;6.45;2.60;;;;;;;13.19;63.97;97920.07;1743121;81;21006;-82
2022/05/22 02:04:57;;;;;;;8.48;2.62;;;;;;;13.18;64.01;97924.70;1729922;82;21170;-85
2022/05/22 02:10:09;;;;;;;5.83;2.98;;;;;;;13.14;63.08;97918.23;1719149;80;20994;-85
2022/05/22 02:12:35;;;;;;;6.55;2.90;;;;;;;13.12;62.53;97920.45;1728368;81;21017;-81
2022/05/22 02:15:01;;;;;;;6.75;2.92;;;;;;;13.10;62.59;97917.23;1718614;80;20970;-81
2022/05/22 02:17:27;;;;;;;5.60;2.37;;;;;;;13.08;62.65;97913.20;1728569;80;21786;-86
2022/05/22 02:19:53;;;;;;;8.65;3.08;;;;;;;13.06;62.64;97902.59;1729015;80;22077;-85
2022/05/22 02:22:19;;;;;;;6.90;2.65;;;;;;;13.04;62.65;97906.17;1741891;80;20964;-82
2022/05/22 02:24:50;;;;;;;10.32;2.98;;;;;;;13.05;63.17;97906.98;1740063;80;20875;-85
2022/05/22 02:27:16;;;;;;;6.08;3.85;;;;;;;13.05;63.13;97902.34;1717233;82;21024;-81
2022/05/22 02:29:42;;;;;;;3.67;2.55;;;;;;;13.07;62.91;97900.13;1730057;80;21237;-85
2022/05/22 02:32:08;;;;;;;4.95;2.90;;;;;;;13.08;63.34;97902.32;1743074;81;20948;-82
2022/05/22 02:34:34;;;;;;;6.37;3.55;;;;;;;13.10;63.00;97904.19;1742915;82;20890;-85
2022/05/22 02:37:00;;;;;;;6.55;2.80;;;;;;;13.08;64.52;97900.96;1743072;81;21095;-84
2022/05/22 02:39:26;;;;;;;7.08;3.30;;;;;;;13.13;63.21;97894.86;1742836;82;21004;-82
2022/05/22 02:41:52;;;;;;;3.75;2.50;;;;;;;13.14;62.86;97898.38;1721817;82;22049;-85
2022/05/22 02:44:18;;;;;;;6.05;3.42;;;;;;;13.14;63.19;97896.47;1720254;80;20852;-82
2022/05/22 02:46:44;;;;;;;6.92;3.00;;;;;;;13.18;62.80;97899.41;1728564;80;20982;-85
2022/05/22 02:49:10;;;;;;;4.03;2.42;;;;;;;13.19;63.00;97904.58;1728103;80;20882;-85
2022/05/22 02:51:36;;;;;;;6.20;3.42;;;;;;;13.20;63.11;97904.03;1707276;82;21081;-81
2022/05/22 02:54:03;;;;;;;7.87;3.37;;;;;;;13.17;63.55;97905.97;1715592;80;21157;-85
2022/05/22 02:56:29;;;;;;;4.42;3.47;;;;;;;13.18;63.21;97907.58;1743440;81;21021;-82
2022/05/22 02:58:55;;;;;;;5.97;2.72;;;;;;;13.21;63.26;97913.80;1743215;82;20980;-86
2022/05/22 03:01:21;;;;;;;7.90;3.62;;;;;;;13.23;63.08;97912.39;1743282;81;20957;-81
2022/05/22 03:03:47;;;;;;;4.65;3.87;;;;;;;13.25;63.08;97902.59;1739083;80;21227;-81
2022/05/22 03:08:57;;;;;;;5.75;3.50;;;;;;;13.29;62.81;97905.50;1742963;82;21005;-81
2022/05/22 03:11:23;;;;;;;6.20;2.92;;;;;;;13.30;62.92;97909.28;1743502;81;21005;-81
2022/05/22 03:13:48;;;;;;;5.75;3.67;;;;;;;13.31;63.37;97904.09;1743258;82;20854;-82
2022/05/22 03:16:16;;;;;;;6.12;3.58;;;;;;;13.27;63.23;97901.73;1743099;82;20984;-85
2022/05/22 03:18:42;;;;;;;4.50;2.95;;;;;;;13.29;63.13;97900.06;1737873;81;22048;-86
2022/05/22 03:21:08;;;;;;;6.87;3.10;;;;;;;13.28;63.23;97901.17;1719944;80;20942;-81
2022/05/22 03:23:34;;;;;;;7.12;3.08;;;;;;;13.28;63.25;97897.90;1730661;80;20948;-86
2022/05/22 03:25:59;;;;;;;5.53;3.02;;;;;;;13.30;63.10;97911.20;1721545;82;20898;-81
2022/05/22 03:28:26;;;;;;;6.08;3.37;;;;;;;13.31;62.95;97901.37;1738940;82;20973;-81
2022/05/22 03:30:52;;;;;;;9.10;3.70;;;;;;;13.31;62.93;97900.01;1711145;80;21991;-86
2022/05/22 03:33:18;;;;;;;7.17;3.37;;;;;;;13.30;63.70;97897.04;1727666;80;20887;-86
2022/05/22 03:35:43;;;;;;;6.53;3.10;;;;;;;13.35;62.99;97896.95;1743384;82;20894;-85
2022/05/22 03:38:09;;;;;;;7.22;3.60;;;;;;;13.39;63.39;97893.06;1743264;81;21562;-85
2022/05/22 03:40:45;;;;;;;7.05;3.58;;;;;;;13.43;63.55;97890.81;1743329;82;20906;-85
2022/05/22 03:43:11;;;;;;;7.17;2.90;;;;;;;13.44;64.34;97893.79;1742924;81;21128;-85
2022/05/22 03:45:37;;;;;;;8.93;3.33;;;;;;;13.51;63.75;97892.84;1731099;80;20993;-81
2022/05/22 03:48:04;;;;;;;8.08;3.22;;;;;;;13.61;63.55;97893.75;1743197;81;20953;-85
2022/05/22 03:50:29;;;;;;;6.87;3.52;;;;;;;13.64;64.78;97887.14;1731855;80;21016;-86
2022/05/22 03:52:56;;;;;;;8.90;3.55;;;;;;;13.77;63.84;97885.53;1743228;81;20993;-85
2022/05/22 03:55:22;;;;;;;6.03;2.92;;;;;;;13.85;63.53;97890.27;1743400;82;22169;-86
2022/05/22 03:57:48;;;;;;;6.83;3.42;;;;;;;13.96;63.21;97894.95;1743152;81;21060;-86
2022/05/22 04:00:17;;;;;;;6.50;3.02;;;;;;;14.07;63.20;97893.61;1743014;82;21690;-81
2022/05/22 04:02:43;;;;;;;3.90;2.10;;;;;;;14.20;62.73;97890.63;1743309;81;21470;-86
2022/05/22 04:05:09;;;;;;;3.98;2.08;;;;;;;14.28;62.31;97883.89;1727101;82;21023;-85
2022/05/22 04:07:40;;;;;;;4.62;2.77;;;;;;;14.29;62.20;97891.52;1703175;84;21964;-86
2022/05/22 04:10:08;;;;;;;4.92;2.52;;;;;;;14.38;61.91;97885.02;1734282;80;21032;-81
2022/05/22 04:12:34;;;;;;;4.97;2.22;;;;;;;14.51;61.54;97888.84;1721932;82;21048;-82
2022/05/22 04:15:00;;;;;;;4.40;2.20;;;;;;;14.66;61.22;97897.22;1742472;82;21021;-81
2022/05/22 04:17:26;;;;;;;8.53;2.08;;;;;;;14.68;61.03;97890.89;1743264;81;21649;-81
2022/05/22 04:19:51;;;;;;;5.90;2.70;;;;;;;14.73;60.43;97896.23;1723872;82;21335;-82
2022/05/22 04:22:17;;;;;;;8.63;2.90;;;;;;;14.82;60.23;97900.39;1704077;82;20895;-81
2022/05/22 04:27:28;;;;;;;6.20;2.50;;;;;;;14.84;58.58;97896.79;1720465;80;21073;-81
2022/05/22 04:29:54;;;;;;;3.67;2.08;;;;;;;14.86;58.16;97906.83;1723192;80;21042;-84
2022/05/22 04:32:20;;;;;;;8.00;1.70;;;;;;;14.81;58.33;97901.52;1728473;80;21895;-85
2022/05/22 04:34:46;;;;;;;3.15;1.70;;;;;;;14.98;57.89;97900.83;1737815;80;20933;-80
2022/05/22 04:37:12;;;;;;;7.87;2.02;;;;;;;15.19;57.67;97899.18;1743127;81;20889;-85
2022/05/22 04:39:37;;;;;;;6.03;1.72;;;;;;;15.33;57.26;97910.03;1743119;82;20846;-81
2022/05/22 04:42:04;;;;;;;6.65;1.80;;;;;;;15.23;57.13;97895.53;1743307;81;21461;-82
2022/05/22 04:44:30;;;;;;;3.58;2.10;;;;;;;15.41;57.19;97899.71;1743127;82;21065;-82
2022/05/22 04:47:01;;;;;;;5.67;1.60;;;;;;;15.64;56.64;97906.77;1743277;81;20984;-86
2022/05/22 04:49:27;;;;;;;5.17;1.67;;;;;;;15.86;56.29;97894.13;1735945;80;21062;-82
2022/05/22 04:51:54;;;;;;;4.10;1.70;;;;;;;16.18;55.62;97900.56;1717760;83;20914;-85
2022/05/22 04:54:20;;;;;;;6.40;2.02;;;;;;;16.38;54.90;97897.77;1714056;80;21006;-82
2022/05/22 04:56:46;;;;;;;5.92;2.62;;;;;;;16.54;54.90;97894.81;1723733;80;20942;-87
2022/05/22 04:59:12;;;;;;;3.37;1.75;;;;;;;16.57;53.61;97899.63;1733872;80;20990;-86
2022/05/22 05:01:38;;;;;;;5.17;2.33;;;;;;;16.47;52.98;97891.75;1743312;81;20917;-86
2022/05/22 05:04:04;;;;;;;4.47;1.70;;;;;;;16.52;53.66;97897.06;1735710;80;21014;-81
2022/05/22 05:06:30;;;;;;;6.53;2.37;;;;;;;16.55;53.60;97896.41;1730481;81;21535;-82
2022/05/22 05:08:56;;;;;;;6.75;2.30;;;;;;;16.29;53.00;97895.03;1743076;82;21131;-82
2022/05/22 05:11:22;;;;;;;4.20;1.50;;;;;;;16.09;53.48;97902.48;1743139;81;21087;-81
2022/05/22 05:13:48;;;;;;;7.83;1.85;;;;;;;16.11;53.61;97902.16;1740074;80;20939;-83
2022/05/22 05:16:14;;;;;;;5.75;1.52;;;;;;;16.06;53.59;97898.47;1728527;80;20879;-81
2022/05/22 05:18:40;;;;;;;6.75;2.83;;;;;;;16.03;53.83;97899.64;1726416;80;20974;-82
2022/05/22 05:21:09;;;;;;;3.47;1.72;;;;;;;16.08;53.42;97899.51;1719291;80;21033;-81
2022/05/22 05:23:36;;;;;;;5.28;2.27;;;;;;;16.06;53.46;97897.63;1742769;81;21013;-87
2022/05/22 05:26:02;;;;;;;10.82;3.00;;;;;;;16.02;53.59;97889.27;1713475;82;21069;-82
2022/05/22 05:28:28;;;;;;;6.28;2.08;;;;;;;16.06;53.73;97889.43;1707097;80;21029;-86
2022/05/22 05:30:54;;;;;;;6.53;2.47;;;;;;;16.13;53.18;97895.80;1743269;82;21137;-82
2022/05/22 05:33:20;;;;;;;3.22;1.70;;;;;;;16.10;53.01;97893.16;1742956;81;21300;-82
2022/05/22 05:35:46;;;;;;;4.40;1.80;;;;;;;16.07;52.88;97891.88;1743038;82;21440;-82
2022/05/22 05:38:12;;;;;;;6.15;1.82;;;;;;;16.07;53.34;97904.17;1743028;81;20886;-86
2022/05/22 05:40:38;;;;;;;8.43;2.58;;;;;;;16.01;52.28;97890.97;1717382;80;20926;-87
2022/05/22 05:43:04;;;;;;;6.97;2.22;;;;;;;16.12;52.37;97888.73;1728423;81;20999;-82
2022/05/22 05:45:30;;;;;;;4.20;1.60;;;;;;;16.30;51.84;97887.06;1737122;80;21321;-82
2022/05/22 05:47:57;;;;;;;4.42;1.70;;;;;;;16.36;51.74;97880.89;1713377;82;20883;-82
2022/05/22 05:50:23;;;;;;;4.15;1.60;;;;;;;16.14;51.72;97895.48;1738475;80;21020;-83
2022/05/22 05:52:49;;;;;;;4.58;1.98;;;;;;;15.95;52.21;97899.06;1743183;81;21583;-86
2022/05/22 05:55:15;;;;;;;6.97;2.10;;;;;;;16.14;52.15;97890.58;1741625;82;21041;-86
2022/05/22 05:57:41;;;;;;;6.03;2.22;;;;;;;16.03;51.36;97888.71;1713550;83;21514;-86
2022/05/22 06:00:09;;;;;;;3.75;1.90;;;;;;;16.07;51.74;97889.70;1725338;80;20903;-81
2022/05/22 06:02:35;;;;;;;4.75;1.65;;;;;;;16.21;51.63;97878.05;1727300;81;21073;-84
2022/05/22 06:05:01;;;;;;;6.33;1.65;;;;;;;16.27;51.62;97875.41;1717102;80;20922;-82
2022/05/22 06:07:27;;;;;;;6.47;2.45;;;;;;;16.42;51.94;97874.14;1713508;83;21029;-82
2022/05/22 06:09:53;;;;;;;3.77;1.65;;;;;;;16.57;50.79;97871.47;1734298;80;22026;-81
2022/05/22 06:12:19;;;;;;;10.00;2.70;;;;;;;16.83;51.34;97877.76;1716234;82;20998;-86
2022/05/22 06:14:46;;;;;;;5.62;2.30;;;;;;;16.92;51.02;97873.67;1722926;80;20990;-87
2022/05/22 06:17:13;;;;;;;7.37;1.87;;;;;;;16.80;49.88;97880.35;1715544;83;21057;-82
2022/05/22 06:19:54;;;;;;;7.90;2.47;;;;;;;16.65;50.29;97878.31;1722422;80;21018;-83
2022/05/22 06:22:20;;;;;;;5.53;2.33;;;;;;;16.78;49.93;97871.10;1728439;80;21160;-81
2022/05/22 06:24:46;;;;;;;7.85;2.72;;;;;;;16.82;49.93;97888.47;1727019;80;21001;-87
2022/05/22 06:27:12;;;;;;;7.62;2.08;;;;;;;16.55;50.12;97879.20;1713303;83;20975;-84
2022/05/22 06:29:40;;;;;;;6.92;1.87;;;;;;;16.65;50.12;97879.67;1729276;80;21622;-87
2022/05/22 06:32:07;;;;;;;5.87;2.02;;;;;;;16.62;50.23;97876.80;1743098;81;21053;-87
2022/05/22 06:34:34;;;;;;;7.12;2.05;;;;;;;17.04;49.76;97880.64;1741837;80;21023;-82
2022/05/22 06:37:02;;;;;;;5.37;1.87;;;;;;;17.52;49.00;97873.24;1743180;81;21071;-82
2022/05/22 06:42:14;;;;;;;4.67;1.92;;;;;;;17.89;48.46;97868.93;1742989;82;21819;-82
2022/05/22 06:44:40;;;;;;;5.53;2.55;;;;;;;17.97;47.17;97872.99;1732797;80;21074;-82
2022/05/22 06:47:07;;;;;;;7.83;1.95;;;;;;;17.68;47.32;97878.41;1728415;80;21462;-83
2022/05/22 06:49:32;;;;;;;7.22;1.95;;;;;;;17.71;48.09;97868.22;1736741;80;21048;-87
2022/05/22 06:51:58;;;;;;;6.12;1.82;;;;;;;17.99;48.07;97880.31;1743202;81;20886;-87
2022/05/22 06:54:24;;;;;;;9.53;2.15;;;;;;;18.11;47.62;97884.27;1743060;82;20899;-82
2022/05/22 06:56:50;;;;;;;5.95;2.45;;;;;;;18.15;46.15;97864.09;1743133;81;20902;-88
2022/05/22 06:59:16;;;;;;;17.48;11.05;;;;;;;17.65;47.33;97877.14;1730913;82;21353;-82
2022/05/22 07:01:42;;;;;;;8.08;2.98;;;;;;;18.08;47.60;97866.55;1713664;83;20919;-82
2022/05/22 07:04:08;;;;;;;6.85;2.42;;;;;;;18.39;47.32;97865.39;1716461;80;21070;-87
2022/05/22 07:06:34;;;;;;;6.92;1.95;;;;;;;18.01;46.74;97878.60;1731008;81;20885;-87
2022/05/22 07:09:00;;;;;;;5.33;1.92;;;;;;;17.81;46.72;97862.36;1731077;82;20950;-87
2022/05/22 07:11:38;;;;;;;5.10;1.87;;;;;;;17.95;47.33;97864.88;1716480;80;21802;-88
2022/05/22 07:14:09;;;;;;;6.20;2.20;;;;;;;18.00;46.49;97868.20;1727864;80;21447;-83
2022/05/22 07:16:36;;;;;;;4.75;1.98;;;;;;;18.30;46.63;97859.97;1728070;80;20967;-87
2022/05/22 07:19:03;;;;;;;15.13;1.85;;;;;;;18.11;46.41;97849.99;1733625;82;21025;-87
2022/05/22 07:21:29;;;;;;;5.12;1.70;;;;;;;18.16;46.41;97842.39;1726549;82;22090;-87
2022/05/22 07:23:55;;;;;;;4.25;1.87;;;;;;;18.49;46.14;97849.31;1714901;80;21315;-82
2022/05/22 07:26:21;;;;;;;7.15;2.10;;;;;;;18.05;46.66;97865.86;1724723;82;20941;-87
2022/05/22 07:28:47;;;;;;;5.58;2.15;;;;;;;18.01;46.80;97866.27;1716676;80;20983;-83
2022/05/22 07:31:16;;;;;;;5.78;2.62;;;;;;;18.36;45.75;97872.89;1739492;82;21017;-87
2022/05/22 07:33:42;;;;;;;3.85;2.30;;;;;;;18.33;45.51;97866.14;1742889;81;21024;-87
2022/05/22 07:36:08;;;;;;;8.75;2.20;;;;;;;18.65;44.79;97872.03;1742940;82;21045;-81
2022/05/22 07:38:34;;;;;;;6.58;2.10;;;;;;;19.14;43.52;97868.91;1742872;81;21599;-82
2022/05/22 07:40:59;;;;;;;3.60;2.33;;;;;;;19.65;43.19;97863.45;1739524;82;20968;-82
2022/05/22 07:43:25;;;;;;;6.22;2.20;;;;;;;20.21;41.48;97866.39;1713032;80;20889;-82
2022/05/22 07:45:51;;;;;;;6.45;3.60;;;;;;;19.84;42.46;97859.33;1710074;82;20896;-87
2022/05/22 07:48:17;;;;;;;6.80;3.05;;;;;;;19.99;42.48;97870.41;1704082;80;21926;-87
2022/05/22 07:50:43;;;;;;;6.40;1.85;;;;;;;19.82;42.59;97859.64;1720798;80;21037;-88
2022/05/22 07:53:09;;;;;;;4.87;2.75;;;;;;;19.06;43.19;97856.10;1743148;81;20917;-82
2022/05/22 07:55:35;;;;;;;8.30;5.20;;;;;;;18.40;44.50;97856.81;1737538;80;21330;-87
2022/05/22 07:58:02;;;;;;;36.15;21.70;;;;;;;18.66;44.63;97859.37;1779092;80;37591;-84
2022/05/22 08:00:28;;;;;;;5.83;2.90;;;;;;;18.32;44.81;97855.74;1730440;80;21051;-87
2022/05/22 08:02:54;;;;;;;7.37;3.15;;;;;;;18.47;45.25;97854.92;1728450;81;20887;-82
2022/05/22 08:05:20;;;;;;;5.62;1.80;;;;;;;18.83;45.27;97855.10;1721558;80;20873;-87
2022/05/22 08:07:46;;;;;;;5.10;2.20;;;;;;;18.78;44.74;97862.16;1703205;84;21021;-87
2022/05/22 08:10:15;;;;;;;6.60;2.83;;;;;;;18.77;44.69;97860.56;1705389;80;20899;-87
2022/05/22 08:12:44;;;;;;;5.05;3.15;;;;;;;18.94;44.40;97858.22;1743302;81;21839;-87
2022/05/22 08:15:11;;;;;;;7.00;2.75;;;;;;;18.41;45.17;97849.39;1720077;80;21006;-82
2022/05/22 08:17:37;;;;;;;5.00;2.08;;;;;;;19.38;44.13;97857.98;1732755;81;21021;-88
2022/05/22 08:20:06;;;;;;;4.08;1.67;;;;;;;19.51;44.02;97845.08;1743266;82;21574;-82
2022/05/22 08:22:32;;;;;;;3.00;1.40;;;;;;;19.27;43.43;97851.33;1742065;81;21044;-82
2022/05/22 08:24:59;;;;;;;7.10;1.80;;;;;;;19.39;42.90;97846.42;1732891;82;21171;-87
2022/05/22 08:27:27;;;;;;;10.60;2.50;;;;;;;19.20;43.46;97855.20;1689584;83;21008;-82
2022/05/22 08:29:53;;;;;;;6.22;2.25;;;;;;;19.73;42.91;97862.51;1715285;82;21042;-82
2022/05/22 08:32:19;;;;;;;8.05;2.00;;;;;;;20.41;41.76;97856.94;1727051;80;20951;-82
2022/05/22 08:34:44;;;;;;;5.45;1.85;;;;;;;20.36;41.00;97859.95;1728711;80;21054;-88
2022/05/22 08:37:10;;;;;;;6.30;2.58;;;;;;;19.05;42.98;97844.86;1716003;83;21625;-87
2022/05/22 08:39:36;;;;;;;3.50;1.75;;;;;;;18.59;44.05;97846.16;1714213;80;20926;-82
2022/05/22 08:42:06;;;;;;;5.50;1.77;;;;;;;18.23;44.55;97848.15;1725514;80;20963;-87
2022/05/22 08:44:32;;;;;;;6.40;2.17;;;;;;;17.97;45.31;97854.38;1717489;82;21484;-87
2022/05/22 08:47:24;;;;;;;5.97;2.02;;;;;;;17.64;45.98;97859.10;1743232;81;21583;-86
2022/05/22 08:50:01;;;;;;;7.30;2.27;;;;;;;17.46;46.47;97861.11;1731879;80;21153;-87
2022/05/22 08:52:44;;;;;;;3.65;1.98;;;;;;;17.42;46.44;97860.14;1727937;80;21070;-81
2022/05/22 08:58:56;;;;;;;5.22;1.67;;;;;;;17.56;46.67;97855.84;1716422;80;21305;-87
2022/05/22 09:00:49;;;;;;;6.08;1.52;;;;;;;19.17;44.94;97840.79;1724303;83;21002;-83
2022/05/22 09:03:24;;;;;;;4.90;1.90;;;;;;;18.65;44.29;97857.77;1714552;80;21038;-87
2022/05/22 09:05:48;;;;;;;7.67;2.02;;;;;;;18.65;44.29;97857.77;1716230;82;21002;-87
2022/05/22 09:08:37;;;;;;;6.83;1.77;;;;;;;18.10;44.80;97854.67;1704059;80;21067;-82
2022/05/22 09:11:18;;;;;;;6.20;2.50;;;;;;;17.90;44.77;97845.30;1742987;82;21009;-82
2022/05/22 09:14:01;;;;;;;3.77;1.60;;;;;;;18.33;44.86;97851.86;1723140;80;21050;-87
2022/05/22 09:16:33;;;;;;;4.87;2.10;;;;;;;20.38;41.64;97844.69;1736073;80;21146;-82
2022/05/22 09:19:27;;;;;;;7.45;1.60;;;;;;;21.93;38.42;97838.80;1726486;82;21497;-82
2022/05/22 09:22:22;;;;;;;6.15;1.70;;;;;;;22.39;36.72;97836.30;1743032;81;21426;-82
2022/05/22 09:25:08;;;;;;;3.70;1.52;;;;;;;22.66;35.70;97822.91;1732557;82;21024;-87
2022/05/22 09:27:52;;;;;;;3.60;1.92;;;;;;;21.78;36.80;97833.52;1713529;83;21024;-88
2022/05/22 09:30:40;;;;;;;11.50;3.22;;;;;;;23.34;34.33;97839.41;1707879;80;21167;-83
2022/05/22 09:33:14;;;;;;;8.58;1.40;;;;;;;22.56;35.76;97833.70;1728652;81;27618;-82
2022/05/22 09:36:03;;;;;;;8.23;2.33;;;;;;;22.07;36.21;97836.97;1709209;80;21066;-88
2022/05/22 09:38:59;;;;;;;7.05;1.50;;;;;;;21.45;36.58;97831.17;1728241;80;21058;-82
2022/05/22 09:41:52;;;;;;;4.10;1.65;;;;;;;20.60;37.23;97826.89;1722237;82;21451;-87
2022/05/22 09:44:47;;;;;;;5.95;1.30;;;;;;;19.84;38.43;97824.96;1722206;80;21450;-82
2022/05/22 09:47:36;;;;;;;8.15;1.90;;;;;;;19.31;39.45;97837.16;1715247;82;21046;-82
2022/05/22 09:50:28;;;;;;;4.50;1.70;;;;;;;18.63;39.97;97827.10;1724790;80;21062;-82
2022/05/22 09:53:18;;;;;;;3.77;1.90;;;;;;;18.07;41.33;97832.62;1728341;81;21467;-82
2022/05/22 09:55:51;;;;;;;7.78;2.20;;;;;;;17.87;42.04;97828.72;1732198;80;21466;-87
2022/05/22 09:58:43;;;;;;;5.58;2.40;;;;;;;17.65;42.69;97816.88;1703007;80;21903;-82
2022/05/22 10:01:40;;;;;;;3.52;1.45;;;;;;;17.64;42.82;97820.75;1722005;83;21050;-83
2022/05/22 10:04:36;;;;;;;4.75;1.60;;;;;;;17.58;43.76;97817.15;1718250;80;21030;-82
2022/05/22 10:07:42;;;;;;;3.90;1.52;;;;;;;17.97;45.20;97825.59;1736967;81;21025;-87
2022/05/22 10:10:29;;;;;;;7.03;2.05;;;;;;;19.11;41.50;97802.32;1742918;82;21061;-87
2022/05/22 10:13:26;;;;;;;3.83;1.62;;;;;;;19.77;39.90;97799.42;1713782;82;21309;-88
2022/05/22 10:16:04;;;;;;;6.00;2.95;;;;;;;21.98;38.04;97783.37;1722895;80;20997;-88
2022/05/22 10:19:01;;;;;;;5.70;1.80;;;;;;;23.70;34.51;97788.88;1738915;80;21001;-83
2022/05/22 10:21:53;;;;;;;4.78;1.45;;;;;;;24.67;33.53;97805.06;1707823;82;21018;-83
2022/05/22 10:24:30;;;;;;;4.03;1.20;;;;;;;24.67;33.71;97793.19;1724668;80;21520;-82
2022/05/22 10:27:39;;;;;;;3.60;1.17;;;;;;;24.39;32.53;97795.82;1720981;81;21450;-83
2022/05/22 10:30:21;;;;;;;4.37;1.50;;;;;;;22.71;34.45;97795.56;1724204;80;20994;-88
2022/05/22 10:33:01;;;;;;;6.12;1.15;;;;;;;23.02;34.20;97794.61;1723150;81;21066;-89
2022/05/22 10:35:54;;;;;;;2.20;1.12;;;;;;;23.34;34.54;97792.42;1740846;80;21498;-87
2022/05/22 10:38:23;;;;;;;3.92;1.42;;;;;;;21.87;35.67;97796.91;1741001;82;21037;-87
2022/05/22 10:43:42;;;;;;;3.00;1.12;;;;;;;20.43;38.13;97807.34;1737439;80;21350;-88
2022/05/22 10:46:08;;;;;;;3.05;1.60;;;;;;;19.88;39.25;97807.41;1709037;82;21030;-82
2022/05/22 10:48:35;;;;;;;3.02;1.60;;;;;;;20.34;38.87;97803.07;1708985;80;20983;-82
2022/05/22 10:51:09;;;;;;;3.08;1.07;;;;;;;20.21;39.03;97811.95;1743114;82;21005;-86
2022/05/22 10:53:57;;;;;;;2.80;1.50;;;;;;;19.97;39.21;97811.41;1737014;81;21137;-83
2022/05/22 10:56:27;;;;;;;3.02;1.42;;;;;;;20.94;38.25;97808.16;1724967;81;21579;-82
2022/05/22 10:59:06;;;;;;;3.75;1.52;;;;;;;23.89;32.75;97805.37;1738110;80;21490;-88
2022/05/22 11:01:39;;;;;;;5.10;1.17;;;;;;;24.76;30.09;97795.87;1737046;80;20993;-82
2022/05/22 11:04:10;;;;;;;4.35;1.65;;;;;;;24.46;29.76;97795.12;1732532;82;21466;-83
2022/05/22 11:06:39;;;;;;;7.72;1.75;;;;;;;22.34;33.91;97802.91;1727743;80;21156;-83
2022/05/22 11:09:07;;;;;;;4.60;1.30;;;;;;;21.99;34.41;97801.52;1726080;82;21062;-82
2022/05/22 11:11:37;;;;;;;6.00;2.02;;;;;;;20.60;38.00;97799.36;1718047;80;20998;-83
2022/05/22 11:14:14;;;;;;;7.35;1.60;;;;;;;20.02;38.75;97810.39;1727606;80;21048;-83
2022/05/22 11:16:40;;;;;;;4.83;1.63;;;;;;;19.13;39.66;97800.03;1740213;81;21159;-82
2022/05/22 11:19:24;;;;;;;4.87;1.82;;;;;;;19.16;39.32;97806.23;1728574;80;21103;-81
2022/05/22 11:22:19;;;;;;;4.50;2.30;;;;;;;19.30;39.65;97801.77;1724171;80;21058;-83
2022/05/22 11:25:00;;;;;;;7.75;1.57;;;;;;;21.36;36.72;97795.52;1728043;80;21020;-88
2022/05/22 11:28:02;;;;;;;5.25;1.47;;;;;;;21.75;36.60;97789.34;1701490;82;21057;-83
2022/05/22 11:30:52;;;;;;;2.37;1.40;;;;;;;20.76;38.14;97793.88;1726056;80;21010;-82
2022/05/22 11:33:32;;;;;;;3.95;1.40;;;;;;;20.81;38.44;97793.05;1699745;82;22050;-82
2022/05/22 11:36:25;;;;;;;3.87;1.42;;;;;;;21.82;36.58;97795.02;1684215;84;21024;-88
2022/05/22 11:39:23;;;;;;;5.60;1.62;;;;;;;22.18;35.21;97788.36;1687816;83;21033;-88
2022/05/22 11:41:54;;;;;;;6.78;1.42;;;;;;;24.19;32.86;97792.96;1645265;86;21075;-88
2022/05/22 11:44:51;;;;;;;4.05;1.52;;;;;;;23.35;32.70;97797.58;1677580;83;21432;-82
2022/05/22 11:47:44;;;;;;;4.97;1.25;;;;;;;24.09;31.22;97798.54;1694947;84;21316;-88
2022/05/22 11:50:31;;;;;;;4.50;1.62;;;;;;;22.98;32.93;97792.34;1698821;83;22172;-82
2022/05/22 11:53:30;;;;;;;3.45;1.50;;;;;;;22.65;32.78;97785.41;1713761;82;21446;-88
2022/05/22 11:56:10;;;;;;;3.27;1.25;;;;;;;20.03;37.32;97806.48;1709543;82;22117;-82
2022/05/22 11:58:52;;;;;;;6.85;1.40;;;;;;;19.03;39.45;97796.36;1707509;80;21025;-82
2022/05/22 12:01:30;;;;;;;5.50;1.50;;;;;;;18.81;40.06;97797.00;1694652;82;21146;-82
2022/05/22 12:04:42;;;;;;;3.45;1.25;;;;;;;18.65;40.00;97789.72;1692411;84;21032;-82
2022/05/22 12:07:17;;;;;;;4.42;1.45;;;;;;;18.52;41.36;97791.59;1666932;84;21041;-83
2022/05/22 12:10:05;;;;;;;5.42;1.15;;;;;;;18.28;41.57;97793.08;1672358;83;21034;-87
2022/05/22 12:12:42;;;;;;;;;;;;;;;18.50;41.33;97791.14;1745744;80;21087;-87